NGB2612 EFHK-EBLG
Flight info
| Callsign | NGB2612 |
|---|---|
| Flight time | N/A |
| Altitude | 36000 |
| Route | NUNTO Y369 REKDO DCT KOSKA DCT VSB DCT KAL DCT RON DCT DISGO DCT MEGAR DCT KEGAB DCT ABAMI Z717 NEREL T855 LNO |
| Aircraft | MD11/H-SDE1E2E3FGHIJ2J3J4J5M1RWXY/LB1D1 |
Departure
| Time | 2026-04-20 17:27 |
|---|---|
| Airport | Helsinki Vantaa Airport (EFHK) |
Arrival
| Time | N/A |
|---|---|
| Airport | Liège Airport (EBLG) |
| Time | Latitude | Longitude | Altitude | Speed | Heading |
|---|---|---|---|---|---|
| 2026-04-20 16:54 | 60.30782 | 24.95079 | 169 ft | 0 kts | 137° |
| 2026-04-20 16:54 | 60.30779 | 24.95078 | 169 ft | 0 kts | 137° |
| 2026-04-20 17:16 | 60.30785 | 24.95068 | 169 ft | 4 kts | 137° |
| 2026-04-20 17:16 | 60.30805 | 24.95031 | 169 ft | 4 kts | 138° |
| 2026-04-20 17:17 | 60.30825 | 24.94995 | 169 ft | 4 kts | 134° |
| 2026-04-20 17:17 | 60.30840 | 24.94957 | 169 ft | 4 kts | 109° |
| 2026-04-20 17:17 | 60.30845 | 24.94930 | 169 ft | 3 kts | 51° |
| 2026-04-20 17:17 | 60.30831 | 24.94899 | 169 ft | 4 kts | 47° |
| 2026-04-20 17:18 | 60.30822 | 24.94880 | 169 ft | 1 kts | 47° |
| 2026-04-20 17:21 | 60.30824 | 24.94882 | 169 ft | 0 kts | 47° |
| 2026-04-20 17:21 | 60.30837 | 24.94912 | 169 ft | 5 kts | 47° |
| 2026-04-20 17:21 | 60.30863 | 24.94969 | 169 ft | 7 kts | 47° |
| 2026-04-20 17:22 | 60.30902 | 24.95057 | 169 ft | 9 kts | 49° |
| 2026-04-20 17:22 | 60.30944 | 24.95154 | 169 ft | 11 kts | 49° |
| 2026-04-20 17:22 | 60.30986 | 24.95206 | 169 ft | 4 kts | 356° |
| 2026-04-20 17:22 | 60.31015 | 24.95173 | 169 ft | 7 kts | 322° |
| 2026-04-20 17:23 | 60.31050 | 24.95103 | 169 ft | 7 kts | 317° |
| 2026-04-20 17:23 | 60.31092 | 24.95032 | 169 ft | 10 kts | 325° |
| 2026-04-20 17:23 | 60.31162 | 24.94934 | 169 ft | 14 kts | 321° |
| 2026-04-20 17:23 | 60.31243 | 24.94785 | 169 ft | 17 kts | 317° |
| 2026-04-20 17:24 | 60.31307 | 24.94631 | 169 ft | 9 kts | 279° |
| 2026-04-20 17:24 | 60.31276 | 24.94525 | 169 ft | 11 kts | 229° |
| 2026-04-20 17:24 | 60.31215 | 24.94389 | 169 ft | 16 kts | 228° |
| 2026-04-20 17:24 | 60.31132 | 24.94205 | 169 ft | 19 kts | 228° |
| 2026-04-20 17:25 | 60.31050 | 24.94014 | 169 ft | 17 kts | 237° |
| 2026-04-20 17:25 | 60.31055 | 24.93813 | 169 ft | 14 kts | 300° |
| 2026-04-20 17:25 | 60.31129 | 24.93683 | 168 ft | 6 kts | 336° |
| 2026-04-20 17:25 | 60.31159 | 24.93700 | 168 ft | 5 kts | 36° |
| 2026-04-20 17:26 | 60.31177 | 24.93742 | 169 ft | 6 kts | 47° |
| 2026-04-20 17:26 | 60.31353 | 24.94126 | 171 ft | 80 kts | 47° |
| 2026-04-20 17:26 | 60.31928 | 24.95389 | 170 ft | 157 kts | 47° |
| 2026-04-20 17:26 | 60.32741 | 24.97162 | 598 ft | 180 kts | 44° |
| 2026-04-20 17:27 | 60.33625 | 24.98968 | 1583 ft | 175 kts | 43° |
| 2026-04-20 17:27 | 60.34488 | 25.00702 | 2521 ft | 172 kts | 43° |
| 2026-04-20 17:27 | 60.35323 | 25.02488 | 3321 ft | 176 kts | 46° |
| 2026-04-20 17:27 | 60.36179 | 25.04403 | 3800 ft | 195 kts | 47° |
| 2026-04-20 17:28 | 60.37126 | 25.06540 | 4241 ft | 212 kts | 47° |
| 2026-04-20 17:28 | 60.38145 | 25.08839 | 4683 ft | 229 kts | 47° |
| 2026-04-20 17:28 | 60.39360 | 25.11106 | 5277 ft | 246 kts | 34° |
| 2026-04-20 17:28 | 60.40936 | 25.12487 | 6314 ft | 251 kts | 13° |
| 2026-04-20 17:29 | 60.42681 | 25.12862 | 7395 ft | 253 kts | 6° |
| 2026-04-20 17:29 | 60.44459 | 25.12973 | 8377 ft | 257 kts | 4° |
| 2026-04-20 17:29 | 60.46248 | 25.12989 | 9300 ft | 262 kts | 0° |
| 2026-04-20 17:29 | 60.48066 | 25.12257 | 10197 ft | 274 kts | 343° |
| 2026-04-20 17:30 | 60.49746 | 25.10016 | 10363 ft | 314 kts | 316° |
| 2026-04-20 17:30 | 60.50870 | 25.05897 | 10501 ft | 353 kts | 290° |
| 2026-04-20 17:30 | 60.51202 | 25.00834 | 11023 ft | 372 kts | 274° |
| 2026-04-20 17:30 | 60.51135 | 24.95507 | 11825 ft | 379 kts | 269° |
| 2026-04-20 17:31 | 60.50825 | 24.90199 | 12614 ft | 386 kts | 259° |
| 2026-04-20 17:31 | 60.49906 | 24.85079 | 13412 ft | 394 kts | 242° |
| 2026-04-20 17:31 | 60.48326 | 24.80434 | 14141 ft | 400 kts | 231° |
| 2026-04-20 17:31 | 60.46499 | 24.76177 | 14816 ft | 405 kts | 227° |
| 2026-04-20 17:32 | 60.44567 | 24.71944 | 15509 ft | 409 kts | 227° |
| 2026-04-20 17:32 | 60.42641 | 24.67715 | 16198 ft | 413 kts | 227° |
| 2026-04-20 17:32 | 60.40689 | 24.63349 | 16855 ft | 417 kts | 228° |
| 2026-04-20 17:32 | 60.38760 | 24.58952 | 17494 ft | 421 kts | 228° |
| 2026-04-20 17:33 | 60.36828 | 24.54497 | 18131 ft | 426 kts | 228° |
| 2026-04-20 17:33 | 60.34950 | 24.49772 | 18654 ft | 429 kts | 236° |
| 2026-04-20 17:33 | 60.33428 | 24.44621 | 19159 ft | 433 kts | 242° |
| 2026-04-20 17:33 | 60.32026 | 24.39207 | 19641 ft | 437 kts | 243° |
| 2026-04-20 17:34 | 60.30624 | 24.33704 | 20115 ft | 442 kts | 243° |
| 2026-04-20 17:34 | 60.29190 | 24.28231 | 20592 ft | 446 kts | 242° |
| 2026-04-20 17:34 | 60.27687 | 24.22679 | 21061 ft | 450 kts | 241° |
| 2026-04-20 17:34 | 60.26163 | 24.17200 | 21523 ft | 454 kts | 240° |
| 2026-04-20 17:35 | 60.24589 | 24.11631 | 22011 ft | 458 kts | 240° |
| 2026-04-20 17:35 | 60.23008 | 24.06088 | 22471 ft | 461 kts | 239° |
| 2026-04-20 17:35 | 60.21392 | 24.00452 | 22977 ft | 465 kts | 239° |
| 2026-04-20 17:35 | 60.19764 | 23.94787 | 23497 ft | 469 kts | 239° |
| 2026-04-20 17:36 | 60.18124 | 23.89095 | 23965 ft | 474 kts | 239° |
| 2026-04-20 17:36 | 60.16477 | 23.83385 | 24410 ft | 477 kts | 239° |
| 2026-04-20 17:36 | 60.14799 | 23.77581 | 24876 ft | 481 kts | 239° |
| 2026-04-20 17:36 | 60.13133 | 23.71831 | 25346 ft | 484 kts | 239° |
| 2026-04-20 17:37 | 60.11416 | 23.65921 | 25832 ft | 487 kts | 239° |
| 2026-04-20 17:37 | 60.09713 | 23.60071 | 26334 ft | 491 kts | 238° |
| 2026-04-20 17:37 | 60.07993 | 23.54179 | 26791 ft | 494 kts | 238° |
| 2026-04-20 17:37 | 60.06235 | 23.48172 | 27253 ft | 498 kts | 238° |
| 2026-04-20 17:38 | 60.04490 | 23.42227 | 27704 ft | 501 kts | 238° |
| 2026-04-20 17:38 | 60.02704 | 23.36159 | 28168 ft | 505 kts | 238° |
| 2026-04-20 17:38 | 60.00920 | 23.30113 | 28595 ft | 509 kts | 238° |
| 2026-04-20 17:38 | 59.99102 | 23.23965 | 29046 ft | 512 kts | 238° |
| 2026-04-20 17:39 | 59.97287 | 23.17847 | 29476 ft | 516 kts | 238° |
| 2026-04-20 17:39 | 59.95437 | 23.11634 | 29904 ft | 520 kts | 238° |
| 2026-04-20 17:39 | 59.93569 | 23.05469 | 30272 ft | 523 kts | 237° |
| 2026-04-20 17:39 | 59.91691 | 22.99316 | 30673 ft | 522 kts | 237° |
| 2026-04-20 17:40 | 59.89812 | 22.93147 | 31101 ft | 521 kts | 237° |
| 2026-04-20 17:40 | 59.87933 | 22.86953 | 31523 ft | 520 kts | 237° |
| 2026-04-20 17:40 | 59.86059 | 22.80758 | 31957 ft | 519 kts | 237° |
| 2026-04-20 17:40 | 59.84221 | 22.74683 | 32370 ft | 517 kts | 237° |
| 2026-04-20 17:41 | 59.82346 | 22.68489 | 32783 ft | 516 kts | 237° |
| 2026-04-20 17:41 | 59.80512 | 22.62447 | 33179 ft | 515 kts | 237° |
| 2026-04-20 17:41 | 59.78654 | 22.56343 | 33569 ft | 514 kts | 237° |
| 2026-04-20 17:41 | 59.76804 | 22.50285 | 33940 ft | 512 kts | 237° |
| 2026-04-20 17:42 | 59.74965 | 22.44280 | 34299 ft | 511 kts | 237° |
| 2026-04-20 17:42 | 59.73126 | 22.38290 | 34603 ft | 510 kts | 237° |
| 2026-04-20 17:42 | 59.71263 | 22.32236 | 34883 ft | 509 kts | 237° |
| 2026-04-20 17:42 | 59.69424 | 22.26280 | 35144 ft | 508 kts | 237° |
| 2026-04-20 17:43 | 59.67597 | 22.20377 | 35408 ft | 507 kts | 237° |
| 2026-04-20 17:43 | 59.65744 | 22.14405 | 35668 ft | 507 kts | 237° |
| 2026-04-20 17:43 | 59.63893 | 22.08451 | 35912 ft | 506 kts | 237° |
| 2026-04-20 17:44 | 59.60210 | 21.96654 | 35995 ft | 502 kts | 237° |
| 2026-04-20 17:44 | 59.56559 | 21.85020 | 36015 ft | 500 kts | 237° |
| 2026-04-20 17:45 | 59.52891 | 21.73392 | 36014 ft | 500 kts | 237° |
| 2026-04-20 17:45 | 59.49163 | 21.61798 | 36017 ft | 500 kts | 236° |
| 2026-04-20 17:46 | 59.45441 | 21.50289 | 36014 ft | 501 kts | 237° |
| 2026-04-20 17:46 | 59.41722 | 21.38716 | 36027 ft | 501 kts | 237° |
| 2026-04-20 17:47 | 59.38006 | 21.27159 | 36027 ft | 501 kts | 237° |
| 2026-04-20 17:47 | 59.34283 | 21.15639 | 36026 ft | 500 kts | 236° |
| 2026-04-20 17:48 | 59.30546 | 21.04135 | 36024 ft | 500 kts | 236° |
| 2026-04-20 17:48 | 59.26803 | 20.92670 | 36032 ft | 500 kts | 236° |
| 2026-04-20 17:49 | 59.23051 | 20.81235 | 36032 ft | 500 kts | 236° |
| 2026-04-20 17:49 | 59.19193 | 20.69998 | 36029 ft | 498 kts | 229° |
| 2026-04-20 17:50 | 59.14220 | 20.60684 | 36037 ft | 494 kts | 216° |
| 2026-04-20 17:50 | 59.08832 | 20.52399 | 36046 ft | 494 kts | 216° |
| 2026-04-20 17:51 | 59.03484 | 20.44089 | 36037 ft | 494 kts | 217° |
| 2026-04-20 17:51 | 58.98161 | 20.35606 | 36037 ft | 494 kts | 217° |
| 2026-04-20 17:52 | 58.92865 | 20.27118 | 36036 ft | 494 kts | 217° |
| 2026-04-20 17:52 | 58.87576 | 20.18677 | 36048 ft | 494 kts | 217° |
| 2026-04-20 17:53 | 58.82288 | 20.10281 | 36041 ft | 493 kts | 217° |
| 2026-04-20 17:53 | 58.76976 | 20.01887 | 36040 ft | 493 kts | 217° |
| 2026-04-20 17:54 | 58.71635 | 19.93481 | 36039 ft | 493 kts | 217° |
| 2026-04-20 17:54 | 58.66341 | 19.85184 | 36042 ft | 493 kts | 217° |
| 2026-04-20 17:55 | 58.61015 | 19.76868 | 36044 ft | 492 kts | 217° |
| 2026-04-20 17:55 | 58.55697 | 19.68601 | 36040 ft | 492 kts | 217° |
| 2026-04-20 17:56 | 58.50386 | 19.60462 | 36037 ft | 492 kts | 216° |
| 2026-04-20 17:56 | 58.45024 | 19.52270 | 36040 ft | 492 kts | 216° |
| 2026-04-20 17:57 | 58.39699 | 19.44110 | 36051 ft | 492 kts | 217° |